Time;durP1;ratioP1;P1;durP2;ratioP2;P2;SDS_P1;SDS_P2;PMS_P1;PMS_P2;Temp;Humidity;BMP_temperature;BMP_pressure;BME280_temperature;BME280_humidity;BME280_pressure;Samples;Min_cycle;Max_cycle;Signal;HPM_P1;HPM_P2
2022/10/19 00:00:19;;;;;;;4.80;2.33;;;;;;;;;;5070814;28;20272;-46
2022/10/19 00:02:47;;;;;;;6.00;1.67;;;;;;;;;;5069330;28;20206;-45
2022/10/19 00:05:13;;;;;;;4.27;1.73;;;;;;;;;;5067251;28;20661;-44
2022/10/19 00:07:39;;;;;;;6.23;2.00;;;;;;;;;;5071406;28;20219;-44
2022/10/19 00:10:05;;;;;;;4.63;1.70;;;;;;;;;;5071266;28;20199;-50
2022/10/19 00:12:31;;;;;;;5.20;1.67;;;;;;;;;;5071335;28;20602;-45
2022/10/19 00:14:57;;;;;;;4.07;1.83;;;;;;;;;;5070823;28;20307;-44
2022/10/19 00:17:23;;;;;;;3.70;1.50;;;;;;;;;;5071148;28;20200;-46
2022/10/19 00:19:51;;;;;;;4.23;2.17;;;;;;;;;;5070950;28;20741;-44
2022/10/19 00:22:17;;;;;;;2.67;1.50;;;;;;;;;;5070660;28;20583;-45
2022/10/19 00:24:43;;;;;;;5.00;1.83;;;;;;;;;;5071018;28;20719;-45
2022/10/19 00:27:09;;;;;;;5.37;1.37;;;;;;;;;;5070931;28;20257;-45
2022/10/19 00:29:35;;;;;;;6.47;1.83;;;;;;;;;;5070690;28;20608;-45
2022/10/19 00:32:01;;;;;;;4.60;1.60;;;;;;;;;;5070210;28;20565;-45
2022/10/19 00:34:27;;;;;;;3.33;1.73;;;;;;;;;;5070727;28;20203;-45
2022/10/19 00:36:54;;;;;;;3.10;1.30;;;;;;;;;;5071082;28;20219;-45
2022/10/19 00:39:20;;;;;;;4.37;1.70;;;;;;;;;;5070535;28;20291;-45
2022/10/19 00:41:47;;;;;;;3.30;1.50;;;;;;;;;;5070976;28;20237;-45
2022/10/19 00:44:32;;;;;;;3.83;1.40;;;;;;;;;;5071329;28;20202;-45
2022/10/19 00:47:01;;;;;;;5.13;1.80;;;;;;;;;;5070230;28;20241;-45
2022/10/19 00:49:28;;;;;;;3.30;1.50;;;;;;;;;;5070420;28;20200;-45
2022/10/19 00:51:57;;;;;;;4.20;1.40;;;;;;;;;;5072697;28;20200;-45
2022/10/19 00:54:24;;;;;;;6.30;1.87;;;;;;;;;;5074123;28;20242;-45
2022/10/19 00:56:52;;;;;;;4.90;1.70;;;;;;;;;;5074257;28;20322;-45
2022/10/19 00:59:19;;;;;;;3.33;1.60;;;;;;;;;;5074548;28;20294;-45
2022/10/19 01:01:46;;;;;;;4.83;1.73;;;;;;;;;;5074632;28;20196;-45
2022/10/19 01:04:12;;;;;;;6.40;1.80;;;;;;;;;;5073467;28;20295;-45
2022/10/19 01:06:39;;;;;;;5.60;1.90;;;;;;;;;;5073867;28;20210;-45
2022/10/19 01:09:06;;;;;;;3.57;1.67;;;;;;;;;;5073804;28;20880;-45
2022/10/19 01:11:37;;;;;;;4.73;2.00;;;;;;;;;;5074384;28;20595;-45
2022/10/19 01:14:09;;;;;;;4.23;1.80;;;;;;;;;;5074236;28;20199;-45
2022/10/19 01:16:38;;;;;;;4.07;1.90;;;;;;;;;;5074081;28;20225;-44
2022/10/19 01:19:14;;;;;;;6.17;2.20;;;;;;;;;;5073995;28;20242;-45
2022/10/19 01:21:42;;;;;;;3.23;1.67;;;;;;;;;;5071651;28;20203;-45
2022/10/19 01:24:23;;;;;;;5.27;1.90;;;;;;;;;;5073506;28;20612;-45
2022/10/19 01:27:00;;;;;;;6.00;1.90;;;;;;;;;;5071635;28;20215;-45
2022/10/19 01:29:36;;;;;;;3.07;1.60;;;;;;;;;;5074056;28;20297;-45
2022/10/19 01:32:05;;;;;;;5.57;2.17;;;;;;;;;;5073887;28;20287;-45
2022/10/19 01:34:32;;;;;;;2.60;1.40;;;;;;;;;;5073974;28;20210;-45
2022/10/19 01:37:00;;;;;;;7.10;2.10;;;;;;;;;;5073425;28;20268;-45
2022/10/19 01:39:32;;;;;;;2.40;1.70;;;;;;;;;;5073512;28;20294;-45
2022/10/19 01:42:01;;;;;;;4.23;1.80;;;;;;;;;;5073902;28;20226;-45
2022/10/19 01:44:31;;;;;;;3.53;1.93;;;;;;;;;;5073233;28;20203;-45
2022/10/19 01:46:59;;;;;;;5.63;1.60;;;;;;;;;;5073712;28;20196;-45
2022/10/19 01:49:28;;;;;;;5.77;2.07;;;;;;;;;;5073478;28;20200;-46
2022/10/19 01:51:56;;;;;;;6.70;1.90;;;;;;;;;;5073924;28;20203;-45
2022/10/19 01:54:25;;;;;;;3.60;1.40;;;;;;;;;;5072280;28;20203;-45
2022/10/19 01:56:52;;;;;;;4.60;1.87;;;;;;;;;;5072930;28;20288;-45
2022/10/19 01:59:19;;;;;;;5.83;1.80;;;;;;;;;;5073318;28;20223;-45
2022/10/19 02:01:46;;;;;;;5.00;1.80;;;;;;;;;;5073137;28;20195;-45
2022/10/19 02:04:15;;;;;;;5.03;1.63;;;;;;;;;;5073460;28;20199;-45
2022/10/19 02:06:42;;;;;;;4.13;1.70;;;;;;;;;;5073607;28;20194;-45
2022/10/19 02:09:08;;;;;;;3.87;1.57;;;;;;;;;;5073277;28;20306;-45
2022/10/19 02:11:36;;;;;;;5.50;1.97;;;;;;;;;;5073237;28;20187;-45
2022/10/19 02:14:05;;;;;;;7.83;2.00;;;;;;;;;;5073244;28;20658;-45
2022/10/19 02:16:33;;;;;;;3.47;1.90;;;;;;;;;;5073291;28;20227;-45
2022/10/19 02:18:59;;;;;;;4.30;1.60;;;;;;;;;;5073223;28;20204;-45
2022/10/19 02:21:26;;;;;;;4.93;1.87;;;;;;;;;;5073276;28;20203;-45
2022/10/19 02:23:53;;;;;;;6.00;1.80;;;;;;;;;;5073233;28;20238;-45
2022/10/19 02:26:20;;;;;;;3.37;1.40;;;;;;;;;;5072689;28;20254;-45
2022/10/19 02:28:46;;;;;;;5.73;1.97;;;;;;;;;;5072902;28;20590;-45
2022/10/19 02:31:12;;;;;;;6.97;1.73;;;;;;;;;;5072975;28;20196;-45
2022/10/19 02:33:38;;;;;;;4.87;1.93;;;;;;;;;;5072901;28;20298;-45
2022/10/19 02:36:04;;;;;;;4.67;2.33;;;;;;;;;;5072708;28;20595;-45
2022/10/19 02:38:30;;;;;;;4.13;1.80;;;;;;;;;;5072745;28;20294;-45
2022/10/19 02:41:04;;;;;;;4.97;1.70;;;;;;;;;;5072473;28;20203;-45
2022/10/19 02:43:31;;;;;;;2.70;1.40;;;;;;;;;;5072332;28;20708;-45
2022/10/19 02:46:00;;;;;;;2.40;1.57;;;;;;;;;;5072663;28;20211;-45
2022/10/19 02:48:27;;;;;;;3.27;1.67;;;;;;;;;;5072251;28;20203;-45
2022/10/19 02:50:53;;;;;;;4.23;1.67;;;;;;;;;;5071579;28;20269;-45
2022/10/19 02:53:19;;;;;;;3.50;1.70;;;;;;;;;;5071561;28;20199;-45
2022/10/19 02:55:47;;;;;;;4.83;1.87;;;;;;;;;;5072515;28;20281;-45
2022/10/19 02:58:14;;;;;;;5.20;1.63;;;;;;;;;;5072393;28;20227;-45
2022/10/19 03:00:40;;;;;;;6.10;2.40;;;;;;;;;;5072421;28;20203;-45
2022/10/19 03:03:06;;;;;;;4.23;1.80;;;;;;;;;;5072472;28;20202;-45
2022/10/19 03:05:32;;;;;;;5.07;2.00;;;;;;;;;;5072317;28;20245;-45
2022/10/19 03:07:58;;;;;;;3.47;1.73;;;;;;;;;;5072302;28;20223;-46
2022/10/19 03:10:24;;;;;;;7.20;2.10;;;;;;;;;;5072261;28;20249;-45
2022/10/19 03:12:50;;;;;;;4.13;2.33;;;;;;;;;;5072204;28;20603;-45
2022/10/19 03:15:18;;;;;;;2.80;1.60;;;;;;;;;;5071261;28;20223;-45
2022/10/19 03:17:44;;;;;;;5.93;1.97;;;;;;;;;;5072266;28;20279;-45
2022/10/19 03:20:11;;;;;;;3.43;1.90;;;;;;;;;;5072034;28;20204;-45
2022/10/19 03:22:37;;;;;;;4.10;1.47;;;;;;;;;;5071965;28;20724;-45
2022/10/19 03:25:03;;;;;;;2.97;1.80;;;;;;;;;;5071898;28;20210;-45
2022/10/19 03:27:29;;;;;;;5.40;1.90;;;;;;;;;;5071706;28;20662;-45
2022/10/19 03:29:55;;;;;;;5.13;1.80;;;;;;;;;;5072065;28;20242;-45
2022/10/19 03:32:23;;;;;;;6.83;2.10;;;;;;;;;;5071779;28;20226;-45
2022/10/19 03:34:49;;;;;;;5.53;1.80;;;;;;;;;;5071970;28;20239;-45
2022/10/19 03:37:15;;;;;;;4.67;1.77;;;;;;;;;;5071679;28;20255;-45
2022/10/19 03:39:41;;;;;;;4.27;1.60;;;;;;;;;;5071898;28;20236;-44
2022/10/19 03:42:07;;;;;;;3.93;1.73;;;;;;;;;;5071868;28;20270;-45
2022/10/19 03:44:33;;;;;;;7.33;2.30;;;;;;;;;;5071796;28;20331;-45
2022/10/19 03:46:59;;;;;;;3.63;2.20;;;;;;;;;;5071261;28;20219;-45
2022/10/19 03:49:26;;;;;;;6.00;2.03;;;;;;;;;;5070521;28;20597;-45
2022/10/19 03:51:52;;;;;;;4.57;2.03;;;;;;;;;;5071567;28;20257;-45
2022/10/19 03:54:18;;;;;;;6.67;2.00;;;;;;;;;;5071457;28;20547;-45
2022/10/19 03:56:44;;;;;;;3.57;1.67;;;;;;;;;;5071418;28;20288;-45
2022/10/19 03:59:12;;;;;;;6.20;2.17;;;;;;;;;;5071320;28;20199;-45
2022/10/19 04:01:39;;;;;;;7.23;2.00;;;;;;;;;;5071691;28;20226;-45
2022/10/19 04:04:06;;;;;;;6.47;2.40;;;;;;;;;;5071451;28;20713;-45
2022/10/19 04:06:34;;;;;;;5.57;1.93;;;;;;;;;;5071630;28;20191;-45
2022/10/19 04:09:00;;;;;;;3.67;1.80;;;;;;;;;;5071067;28;20297;-44
2022/10/19 04:11:27;;;;;;;8.00;2.00;;;;;;;;;;5071410;28;20241;-45
2022/10/19 04:13:54;;;;;;;4.17;2.10;;;;;;;;;;5071364;28;20619;-45
2022/10/19 04:16:21;;;;;;;6.80;2.27;;;;;;;;;;5070946;28;20235;-45
2022/10/19 04:18:47;;;;;;;3.97;2.00;;;;;;;;;;5071386;28;20223;-45
2022/10/19 04:21:20;;;;;;;5.40;2.07;;;;;;;;;;5071265;28;20207;-45
2022/10/19 04:23:47;;;;;;;4.20;2.10;;;;;;;;;;5071388;28;20219;-45
2022/10/19 04:26:13;;;;;;;4.60;1.80;;;;;;;;;;5073504;28;20192;-45
2022/10/19 04:28:39;;;;;;;5.33;2.13;;;;;;;;;;5075287;28;20284;-45
2022/10/19 04:31:06;;;;;;;2.33;1.80;;;;;;;;;;5074767;28;20612;-45
2022/10/19 04:33:32;;;;;;;4.70;2.13;;;;;;;;;;5074171;28;20206;-45
2022/10/19 04:35:59;;;;;;;7.03;2.00;;;;;;;;;;5074897;28;20284;-45
2022/10/19 04:38:25;;;;;;;4.87;1.83;;;;;;;;;;5074798;28;20304;-46
2022/10/19 04:40:52;;;;;;;3.67;1.93;;;;;;;;;;5074811;28;20200;-45
2022/10/19 04:43:18;;;;;;;4.70;2.13;;;;;;;;;;5074882;28;20195;-46
2022/10/19 04:45:44;;;;;;;3.07;2.00;;;;;;;;;;5074811;28;20237;-45
2022/10/19 04:48:10;;;;;;;5.83;2.07;;;;;;;;;;5074466;28;20196;-46
2022/10/19 04:50:36;;;;;;;4.83;2.00;;;;;;;;;;5072935;28;20239;-43
2022/10/19 04:53:02;;;;;;;3.87;1.80;;;;;;;;;;5074730;28;20188;-43
2022/10/19 04:55:28;;;;;;;4.20;2.03;;;;;;;;;;5074508;28;20227;-43
2022/10/19 04:57:56;;;;;;;5.10;2.43;;;;;;;;;;5074639;28;20699;-44
2022/10/19 05:00:22;;;;;;;3.80;2.13;;;;;;;;;;5074560;28;20992;-44
2022/10/19 05:02:48;;;;;;;4.50;2.37;;;;;;;;;;5074416;28;20215;-44
2022/10/19 05:05:14;;;;;;;2.53;1.90;;;;;;;;;;5074258;28;20242;-45
2022/10/19 05:07:40;;;;;;;6.20;2.20;;;;;;;;;;5073781;28;20232;-46
2022/10/19 05:10:07;;;;;;;6.77;2.23;;;;;;;;;;5073675;28;20662;-46
2022/10/19 05:12:34;;;;;;;5.90;2.00;;;;;;;;;;5074232;28;20254;-46
2022/10/19 05:15:01;;;;;;;4.57;2.07;;;;;;;;;;5074506;28;20203;-45
2022/10/19 05:17:29;;;;;;;3.17;1.90;;;;;;;;;;5074363;28;20611;-45
2022/10/19 05:19:55;;;;;;;3.57;1.70;;;;;;;;;;5074271;28;20366;-43
2022/10/19 05:22:21;;;;;;;8.40;2.43;;;;;;;;;;5074293;28;20724;-44
2022/10/19 05:24:47;;;;;;;4.60;1.70;;;;;;;;;;5073928;28;20270;-44
2022/10/19 05:27:13;;;;;;;5.63;2.37;;;;;;;;;;5073848;28;20848;-44
2022/10/19 05:29:39;;;;;;;3.50;2.03;;;;;;;;;;5074236;28;20207;-44
2022/10/19 05:32:06;;;;;;;4.77;2.07;;;;;;;;;;5074106;28;20207;-44
2022/10/19 05:34:32;;;;;;;6.63;2.20;;;;;;;;;;5073928;28;20567;-44
2022/10/19 05:36:58;;;;;;;5.13;1.70;;;;;;;;;;5073036;28;20219;-44
2022/10/19 05:39:25;;;;;;;5.70;2.30;;;;;;;;;;5073671;28;20204;-46
2022/10/19 05:41:51;;;;;;;2.70;1.60;;;;;;;;;;5074001;28;20214;-46
2022/10/19 05:44:18;;;;;;;3.80;1.90;;;;;;;;;;5074005;28;20200;-43
2022/10/19 05:46:44;;;;;;;6.10;2.00;;;;;;;;;;5073791;28;20203;-46
2022/10/19 05:49:12;;;;;;;3.73;1.60;;;;;;;;;;5073820;28;20204;-47
2022/10/19 05:51:39;;;;;;;6.63;1.90;;;;;;;;;;5073601;28;20231;-46
2022/10/19 05:54:05;;;;;;;8.47;1.90;;;;;;;;;;5073700;28;20682;-45
2022/10/19 05:56:32;;;;;;;6.47;1.70;;;;;;;;;;5073483;28;20231;-45
2022/10/19 05:58:59;;;;;;;4.13;1.80;;;;;;;;;;5073602;28;20207;-46
2022/10/19 06:01:25;;;;;;;6.03;2.00;;;;;;;;;;5073129;28;20550;-45
2022/10/19 06:03:52;;;;;;;5.73;1.93;;;;;;;;;;5073480;28;20210;-46
2022/10/19 06:06:20;;;;;;;6.50;1.93;;;;;;;;;;5071371;28;20722;-45
2022/10/19 06:08:47;;;;;;;6.13;1.90;;;;;;;;;;5073469;28;20225;-45
2022/10/19 06:11:14;;;;;;;8.00;2.30;;;;;;;;;;5073023;28;20199;-45
2022/10/19 06:13:41;;;;;;;5.50;2.10;;;;;;;;;;5073715;28;20261;-45
2022/10/19 06:16:08;;;;;;;9.67;1.97;;;;;;;;;;5073323;28;20599;-45
2022/10/19 06:18:34;;;;;;;5.73;1.67;;;;;;;;;;5070706;28;20211;-45
2022/10/19 06:21:03;;;;;;;5.67;1.77;;;;;;;;;;5073465;28;20200;-46
2022/10/19 06:23:31;;;;;;;4.07;1.67;;;;;;;;;;5072627;28;20716;-46
2022/10/19 06:25:57;;;;;;;6.40;2.00;;;;;;;;;;5070349;28;20230;-45
2022/10/19 06:28:23;;;;;;;7.57;2.23;;;;;;;;;;5072539;28;20303;-45
2022/10/19 06:30:49;;;;;;;3.90;1.70;;;;;;;;;;5072747;28;20227;-50
2022/10/19 06:33:15;;;;;;;3.70;1.70;;;;;;;;;;5072693;28;20253;-51
2022/10/19 06:35:41;;;;;;;4.70;1.73;;;;;;;;;;5072404;28;20219;-46
2022/10/19 06:38:08;;;;;;;3.33;1.80;;;;;;;;;;5072116;28;20855;-45
2022/10/19 06:40:35;;;;;;;5.27;2.00;;;;;;;;;;5072302;28;20204;-45
2022/10/19 06:43:01;;;;;;;3.43;1.50;;;;;;;;;;5071802;28;20674;-45
2022/10/19 06:45:27;;;;;;;4.90;1.60;;;;;;;;;;5072343;28;20318;-45
2022/10/19 06:47:53;;;;;;;5.57;1.60;;;;;;;;;;5072112;28;20721;-45
2022/10/19 06:50:19;;;;;;;4.70;1.87;;;;;;;;;;5072157;28;20235;-46
2022/10/19 06:52:46;;;;;;;5.43;2.00;;;;;;;;;;5072529;28;20235;-46
2022/10/19 06:55:12;;;;;;;4.43;1.70;;;;;;;;;;5072090;28;20202;-45
2022/10/19 06:57:39;;;;;;;5.33;1.70;;;;;;;;;;5072097;28;20677;-46
2022/10/19 07:00:06;;;;;;;3.67;1.37;;;;;;;;;;5072012;28;20693;-45
2022/10/19 07:02:32;;;;;;;6.53;1.93;;;;;;;;;;5071847;28;20204;-45
2022/10/19 07:04:58;;;;;;;3.33;1.53;;;;;;;;;;5072463;28;20200;-45
2022/10/19 07:07:24;;;;;;;6.33;1.63;;;;;;;;;;5072098;28;20199;-45
2022/10/19 07:09:52;;;;;;;5.13;1.90;;;;;;;;;;5072297;28;20203;-45
2022/10/19 07:12:18;;;;;;;3.63;1.57;;;;;;;;;;5072322;28;20196;-45
2022/10/19 07:14:46;;;;;;;3.30;1.37;;;;;;;;;;5072832;28;20294;-44
2022/10/19 07:17:13;;;;;;;4.43;1.50;;;;;;;;;;5071472;28;20258;-44
2022/10/19 07:19:39;;;;;;;5.33;1.50;;;;;;;;;;5071240;28;20227;-44
2022/10/19 07:22:05;;;;;;;3.80;1.47;;;;;;;;;;5071011;28;20665;-45
2022/10/19 07:24:31;;;;;;;3.77;1.37;;;;;;;;;;5071495;28;20208;-45
2022/10/19 07:26:57;;;;;;;5.47;1.70;;;;;;;;;;5071141;28;20422;-44
2022/10/19 07:29:23;;;;;;;3.57;1.90;;;;;;;;;;5071393;28;20623;-45
2022/10/19 07:31:50;;;;;;;3.43;1.30;;;;;;;;;;5071678;28;20295;-45
2022/10/19 07:34:16;;;;;;;3.03;1.40;;;;;;;;;;5071358;28;20225;-45
2022/10/19 07:36:44;;;;;;;3.13;1.50;;;;;;;;;;5071598;28;20310;-46
2022/10/19 07:39:11;;;;;;;2.60;1.40;;;;;;;;;;5071627;28;20199;-45
2022/10/19 07:41:37;;;;;;;4.67;1.63;;;;;;;;;;5071513;28;20718;-46
2022/10/19 07:44:04;;;;;;;4.00;1.60;;;;;;;;;;5071527;28;20192;-45
2022/10/19 07:46:35;;;;;;;4.27;1.70;;;;;;;;;;5071286;28;20290;-45
2022/10/19 07:49:04;;;;;;;5.20;1.30;;;;;;;;;;5071359;28;20196;-45
2022/10/19 07:51:30;;;;;;;2.93;1.70;;;;;;;;;;5070681;28;20243;-46
2022/10/19 07:53:57;;;;;;;2.90;1.30;;;;;;;;;;5071223;28;20195;-45
2022/10/19 07:56:23;;;;;;;2.03;1.50;;;;;;;;;;5071268;28;20227;-47
2022/10/19 07:58:50;;;;;;;1.80;1.40;;;;;;;;;;5071180;28;20268;-45
2022/10/19 08:01:17;;;;;;;5.23;1.80;;;;;;;;;;5070481;28;20221;-46
2022/10/19 08:03:44;;;;;;;5.50;1.57;;;;;;;;;;5071186;28;20214;-45
2022/10/19 08:06:12;;;;;;;3.50;1.30;;;;;;;;;;5070571;28;20179;-45
2022/10/19 08:08:38;;;;;;;3.60;1.60;;;;;;;;;;5070712;28;20356;-45
2022/10/19 08:11:08;;;;;;;4.33;1.80;;;;;;;;;;5071076;28;20203;-45
2022/10/19 08:13:34;;;;;;;3.50;1.13;;;;;;;;;;5071000;28;20213;-44
2022/10/19 08:16:00;;;;;;;3.97;1.70;;;;;;;;;;5070926;28;20782;-46
2022/10/19 08:18:26;;;;;;;2.90;1.47;;;;;;;;;;5070758;28;20195;-45
2022/10/19 08:20:52;;;;;;;4.87;1.83;;;;;;;;;;5070540;28;20197;-44
2022/10/19 08:23:19;;;;;;;2.37;1.20;;;;;;;;;;5070578;28;20286;-45
2022/10/19 08:25:45;;;;;;;3.97;1.40;;;;;;;;;;5069774;28;20585;-45
2022/10/19 08:28:11;;;;;;;5.23;1.30;;;;;;;;;;5071031;28;20199;-51
2022/10/19 08:30:37;;;;;;;3.23;1.37;;;;;;;;;;5070581;28;20732;-45
2022/10/19 08:33:06;;;;;;;5.23;2.33;;;;;;;;;;5070449;28;20231;-46
2022/10/19 08:35:32;;;;;;;5.43;1.50;;;;;;;;;;5070890;28;20282;-46
2022/10/19 08:37:58;;;;;;;2.83;1.40;;;;;;;;;;5070954;28;20261;-46
2022/10/19 08:40:27;;;;;;;5.67;1.70;;;;;;;;;;5071004;28;20679;-45
2022/10/19 08:42:57;;;;;;;4.33;1.30;;;;;;;;;;5070753;28;20299;-46
2022/10/19 08:45:26;;;;;;;2.87;1.20;;;;;;;;;;5070688;28;20218;-46
2022/10/19 08:47:59;;;;;;;5.13;1.33;;;;;;;;;;5070822;28;20202;-46
2022/10/19 08:50:26;;;;;;;4.23;1.47;;;;;;;;;;5070741;28;20717;-46
2022/10/19 08:52:54;;;;;;;3.73;1.30;;;;;;;;;;5070801;28;20223;-46
2022/10/19 08:55:24;;;;;;;6.23;1.30;;;;;;;;;;5070448;28;20202;-46
2022/10/19 08:57:54;;;;;;;2.60;1.40;;;;;;;;;;5069457;28;20231;-46
2022/10/19 09:00:38;;;;;;;2.67;1.30;;;;;;;;;;5070461;28;20291;-46
2022/10/19 09:03:10;;;;;;;5.13;1.50;;;;;;;;;;5069454;28;20642;-46
2022/10/19 09:05:40;;;;;;;2.37;1.20;;;;;;;;;;5069855;28;20214;-46
2022/10/19 09:08:07;;;;;;;3.07;1.67;;;;;;;;;;5069745;28;20678;-46
2022/10/19 09:10:35;;;;;;;4.77;1.37;;;;;;;;;;5070622;28;20203;-45
2022/10/19 09:13:04;;;;;;;3.77;1.40;;;;;;;;;;5072681;28;20242;-46
2022/10/19 09:15:34;;;;;;;4.80;1.20;;;;;;;;;;5074233;28;20208;-46
2022/10/19 09:18:00;;;;;;;3.13;1.30;;;;;;;;;;5073249;28;20265;-46
2022/10/19 09:20:31;;;;;;;4.97;1.60;;;;;;;;;;5074173;28;20673;-46
2022/10/19 09:23:01;;;;;;;4.90;2.47;;;;;;;;;;5073500;28;20282;-46
2022/10/19 09:25:29;;;;;;;2.70;1.40;;;;;;;;;;5073599;28;20203;-46
2022/10/19 09:28:00;;;;;;;3.43;1.50;;;;;;;;;;5074266;28;20207;-45
2022/10/19 09:30:28;;;;;;;2.97;1.53;;;;;;;;;;5072632;28;20672;-46
2022/10/19 09:32:58;;;;;;;3.03;1.57;;;;;;;;;;5074350;28;20246;-46
2022/10/19 09:35:27;;;;;;;3.60;1.70;;;;;;;;;;5074223;28;20282;-45
2022/10/19 09:37:53;;;;;;;3.10;1.87;;;;;;;;;;5074237;28;20701;-46
2022/10/19 09:40:21;;;;;;;3.47;1.47;;;;;;;;;;5074154;28;20685;-46
2022/10/19 09:42:55;;;;;;;3.87;1.60;;;;;;;;;;5074173;28;20792;-46
2022/10/19 09:45:25;;;;;;;2.17;1.70;;;;;;;;;;5074071;28;20623;-46
2022/10/19 09:47:53;;;;;;;7.10;1.70;;;;;;;;;;5074171;28;20199;-45
2022/10/19 09:50:19;;;;;;;2.13;1.40;;;;;;;;;;5073689;28;20258;-45
2022/10/19 09:52:46;;;;;;;2.53;1.50;;;;;;;;;;5074013;28;20200;-45
2022/10/19 09:55:26;;;;;;;5.60;2.63;;;;;;;;;;5073966;28;20196;-45
2022/10/19 09:57:58;;;;;;;4.53;3.43;;;;;;;;;;5073950;28;20266;-45
2022/10/19 10:00:30;;;;;;;3.17;1.90;;;;;;;;;;5073886;28;20565;-45
2022/10/19 10:02:57;;;;;;;3.57;1.70;;;;;;;;;;5073806;28;20770;-45
2022/10/19 10:05:30;;;;;;;7.83;1.90;;;;;;;;;;5073619;28;20677;-45
2022/10/19 10:07:56;;;;;;;3.27;1.60;;;;;;;;;;5073652;28;20349;-45
2022/10/19 10:10:23;;;;;;;3.70;1.70;;;;;;;;;;5073546;28;20203;-45
2022/10/19 10:12:49;;;;;;;4.07;1.47;;;;;;;;;;5073548;28;20184;-46
2022/10/19 10:15:17;;;;;;;4.30;1.53;;;;;;;;;;5073526;28;20256;-45
2022/10/19 10:17:44;;;;;;;2.67;1.50;;;;;;;;;;5073517;28;20231;-45
2022/10/19 10:20:23;;;;;;;1.87;1.63;;;;;;;;;;5073351;28;20203;-45
2022/10/19 10:22:55;;;;;;;4.10;1.83;;;;;;;;;;5072932;28;20199;-45
2022/10/19 10:25:24;;;;;;;5.53;1.53;;;;;;;;;;5070476;28;20203;-46
2022/10/19 10:27:54;;;;;;;5.03;1.93;;;;;;;;;;5071933;28;20230;-45
2022/10/19 10:30:20;;;;;;;3.60;1.50;;;;;;;;;;5071226;28;20302;-45
2022/10/19 10:32:47;;;;;;;1.93;1.30;;;;;;;;;;5072675;28;20249;-45
2022/10/19 10:35:16;;;;;;;3.63;1.50;;;;;;;;;;5071230;28;20191;-45
2022/10/19 10:37:44;;;;;;;3.90;1.70;;;;;;;;;;5072964;28;20223;-45
2022/10/19 10:40:18;;;;;;;5.77;1.80;;;;;;;;;;5072976;28;20210;-44
2022/10/19 10:42:45;;;;;;;4.53;1.80;;;;;;;;;;5072836;28;20200;-45
2022/10/19 10:45:16;;;;;;;2.37;1.37;;;;;;;;;;5070528;28;20274;-46
2022/10/19 10:47:47;;;;;;;3.93;1.50;;;;;;;;;;5071823;28;20211;-46
2022/10/19 10:50:16;;;;;;;3.83;1.83;;;;;;;;;;5072312;28;20243;-45
2022/10/19 10:52:55;;;;;;;6.23;2.00;;;;;;;;;;5072461;28;20207;-45
2022/10/19 10:55:21;;;;;;;4.90;1.70;;;;;;;;;;5072617;28;20290;-45
2022/10/19 10:57:49;;;;;;;4.27;1.63;;;;;;;;;;5072233;28;20910;-45
2022/10/19 11:00:16;;;;;;;4.67;1.47;;;;;;;;;;5071743;28;20700;-45
2022/10/19 11:02:48;;;;;;;4.90;1.50;;;;;;;;;;5070521;28;20203;-45
2022/10/19 11:05:17;;;;;;;2.67;1.50;;;;;;;;;;5072144;28;20258;-44
2022/10/19 11:07:46;;;;;;;3.80;1.60;;;;;;;;;;5071855;28;20219;-45
2022/10/19 11:10:16;;;;;;;3.57;1.50;;;;;;;;;;5072023;28;20200;-44
2022/10/19 11:12:45;;;;;;;4.70;1.50;;;;;;;;;;5071880;28;20184;-44
2022/10/19 11:15:14;;;;;;;3.57;1.37;;;;;;;;;;5071682;28;20654;-46
2022/10/19 11:17:45;;;;;;;3.57;1.43;;;;;;;;;;5071507;28;20239;-46
2022/10/19 11:20:14;;;;;;;7.67;1.63;;;;;;;;;;5071187;28;20207;-44
2022/10/19 11:22:44;;;;;;;2.53;1.60;;;;;;;;;;5071519;28;20203;-44
2022/10/19 11:25:20;;;;;;;4.87;1.50;;;;;;;;;;5071737;28;20555;-44
2022/10/19 11:27:51;;;;;;;2.97;1.80;;;;;;;;;;5071301;28;20199;-44
2022/10/19 11:30:18;;;;;;;2.73;1.37;;;;;;;;;;5071666;28;20245;-45
2022/10/19 11:32:47;;;;;;;3.07;1.50;;;;;;;;;;5071705;28;20199;-45
2022/10/19 11:35:18;;;;;;;4.67;1.80;;;;;;;;;;5071024;28;20200;-45
2022/10/19 11:37:49;;;;;;;5.53;1.60;;;;;;;;;;5071800;28;20270;-45
2022/10/19 11:40:19;;;;;;;4.90;1.63;;;;;;;;;;5070933;28;20196;-45
2022/10/19 11:42:53;;;;;;;4.07;1.30;;;;;;;;;;5070690;28;20206;-45
2022/10/19 11:45:23;;;;;;;2.23;1.50;;;;;;;;;;5071631;28;20225;-45
2022/10/19 11:47:58;;;;;;;5.83;1.50;;;;;;;;;;5071552;28;20205;-45
2022/10/19 11:50:32;;;;;;;4.20;1.87;;;;;;;;;;5071341;28;20239;-45
2022/10/19 11:53:03;;;;;;;5.10;1.43;;;;;;;;;;5071475;28;20229;-45
2022/10/19 11:55:36;;;;;;;2.57;1.60;;;;;;;;;;5071673;28;20272;-45
2022/10/19 11:58:08;;;;;;;2.47;1.37;;;;;;;;;;5071589;28;20238;-44
2022/10/19 12:00:39;;;;;;;3.23;1.53;;;;;;;;;;5071387;28;20723;-45
2022/10/19 12:03:26;;;;;;;2.93;1.37;;;;;;;;;;5071394;28;20199;-46
2022/10/19 12:06:00;;;;;;;5.33;1.47;;;;;;;;;;5071638;28;20298;-45
2022/10/19 12:08:32;;;;;;;3.20;1.57;;;;;;;;;;5071176;28;20215;-45
2022/10/19 12:11:04;;;;;;;4.20;1.67;;;;;;;;;;5071465;28;20200;-46
2022/10/19 12:13:36;;;;;;;4.10;1.30;;;;;;;;;;5071314;28;20577;-46
2022/10/19 12:16:03;;;;;;;2.63;1.80;;;;;;;;;;5071181;28;20225;-45
2022/10/19 12:18:34;;;;;;;4.00;1.77;;;;;;;;;;5070441;28;20198;-46
2022/10/19 12:21:02;;;;;;;3.87;1.40;;;;;;;;;;5071310;28;20201;-45
2022/10/19 12:23:31;;;;;;;3.03;1.30;;;;;;;;;;5070758;28;20770;-45
2022/10/19 12:25:59;;;;;;;3.67;1.30;;;;;;;;;;5070811;28;20272;-46
2022/10/19 12:28:29;;;;;;;2.97;1.40;;;;;;;;;;5070782;28;20202;-45
2022/10/19 12:30:56;;;;;;;3.30;1.50;;;;;;;;;;5071091;28;20272;-46
2022/10/19 12:33:24;;;;;;;4.77;1.80;;;;;;;;;;5071099;28;20199;-46
2022/10/19 12:35:58;;;;;;;4.60;1.40;;;;;;;;;;5070243;28;20206;-45
2022/10/19 12:38:27;;;;;;;3.17;1.40;;;;;;;;;;5070371;28;20191;-46
2022/10/19 12:40:55;;;;;;;2.10;1.20;;;;;;;;;;5070684;28;20191;-46
2022/10/19 12:43:28;;;;;;;5.73;1.57;;;;;;;;;;5070993;28;20245;-46
2022/10/19 12:46:02;;;;;;;4.17;1.50;;;;;;;;;;5071119;28;20249;-46
2022/10/19 12:48:28;;;;;;;2.23;1.47;;;;;;;;;;5074666;28;20199;-46
2022/10/19 12:51:10;;;;;;;2.60;1.53;;;;;;;;;;5074810;28;20353;-46
2022/10/19 12:53:37;;;;;;;2.60;1.33;;;;;;;;;;5074717;28;20208;-45
2022/10/19 12:56:05;;;;;;;2.20;1.30;;;;;;;;;;5068737;28;20318;-46
2022/10/19 12:58:33;;;;;;;3.73;1.40;;;;;;;;;;5071038;28;20204;-46
2022/10/19 13:01:02;;;;;;;5.40;1.20;;;;;;;;;;5074025;28;20673;-46
2022/10/19 13:03:30;;;;;;;2.83;1.53;;;;;;;;;;5072534;28;20392;-46
2022/10/19 13:05:57;;;;;;;2.97;1.57;;;;;;;;;;5073626;28;20210;-46
2022/10/19 13:08:26;;;;;;;3.13;1.20;;;;;;;;;;5073558;28;20228;-47
2022/10/19 13:11:03;;;;;;;4.47;1.40;;;;;;;;;;5073568;28;20695;-46
2022/10/19 13:13:52;;;;;;;4.57;1.60;;;;;;;;;;5074159;28;20229;-46
2022/10/19 13:16:33;;;;;;;3.70;1.33;;;;;;;;;;5074178;28;20253;-46
2022/10/19 13:19:03;;;;;;;3.60;1.40;;;;;;;;;;5074269;28;20207;-46
2022/10/19 13:21:47;;;;;;;2.73;1.50;;;;;;;;;;5073705;28;20191;-46
2022/10/19 13:24:28;;;;;;;3.27;1.17;;;;;;;;;;5073703;28;20190;-46
2022/10/19 13:27:13;;;;;;;47.90;37.43;;;;;;;;;;5072258;28;20198;-46
2022/10/19 13:29:41;;;;;;;100.63;84.27;;;;;;;;;;5073642;28;20229;-46
2022/10/19 13:32:26;;;;;;;21.20;16.10;;;;;;;;;;5073690;28;20217;-46
2022/10/19 13:34:53;;;;;;;7.47;5.47;;;;;;;;;;5073465;28;20297;-46
2022/10/19 13:37:19;;;;;;;9.00;5.37;;;;;;;;;;5073130;28;20218;-46
2022/10/19 13:39:46;;;;;;;3.50;1.73;;;;;;;;;;5073833;28;20613;-46
2022/10/19 13:42:22;;;;;;;3.17;1.70;;;;;;;;;;5073729;28;20197;-46
2022/10/19 13:44:51;;;;;;;2.80;1.43;;;;;;;;;;5073351;28;20267;-46
2022/10/19 13:47:35;;;;;;;3.73;1.40;;;;;;;;;;5073433;28;20203;-46
2022/10/19 13:50:22;;;;;;;4.33;1.60;;;;;;;;;;5073259;28;20230;-46
2022/10/19 13:53:21;;;;;;;4.73;1.43;;;;;;;;;;5073303;28;20365;-46
2022/10/19 13:56:10;;;;;;;2.60;1.37;;;;;;;;;;5009617;28;20212;-46
2022/10/19 13:58:48;;;;;;;3.83;1.70;;;;;;;;;;5000093;28;20224;-46
2022/10/19 14:01:18;;;;;;;3.07;1.43;;;;;;;;;;5053336;28;20199;-46
2022/10/19 14:03:55;;;;;;;3.93;1.50;;;;;;;;;;5069121;28;20203;-46
2022/10/19 14:06:26;;;;;;;3.73;1.30;;;;;;;;;;5071392;28;20561;-46
2022/10/19 14:09:12;;;;;;;2.73;1.30;;;;;;;;;;5073157;28;20291;-45
2022/10/19 14:11:39;;;;;;;1.60;1.30;;;;;;;;;;5072097;28;20206;-46
2022/10/19 14:14:12;;;;;;;1.53;1.37;;;;;;;;;;5073113;28;20199;-46
2022/10/19 14:16:44;;;;;;;4.33;1.30;;;;;;;;;;5072631;28;20236;-45
2022/10/19 14:19:12;;;;;;;4.97;1.83;;;;;;;;;;5073060;28;20208;-46
2022/10/19 14:21:40;;;;;;;2.67;1.30;;;;;;;;;;5072356;28;20206;-46
2022/10/19 14:24:19;;;;;;;4.50;1.63;;;;;;;;;;5072602;28;20200;-46
2022/10/19 14:26:45;;;;;;;3.53;1.50;;;;;;;;;;5071333;28;20424;-46
2022/10/19 14:29:12;;;;;;;2.93;1.70;;;;;;;;;;5073006;28;20682;-46
2022/10/19 14:31:38;;;;;;;4.90;1.50;;;;;;;;;;5070878;28;20295;-45
2022/10/19 14:34:07;;;;;;;3.43;1.73;;;;;;;;;;5072852;28;20205;-46
2022/10/19 14:36:34;;;;;;;4.47;1.53;;;;;;;;;;5071228;28;20300;-45
2022/10/19 14:39:02;;;;;;;4.40;1.60;;;;;;;;;;5070270;28;20191;-45
2022/10/19 14:41:32;;;;;;;4.70;1.70;;;;;;;;;;5070711;28;20207;-46
2022/10/19 14:43:58;;;;;;;5.00;2.00;;;;;;;;;;5072033;28;20279;-46
2022/10/19 14:46:25;;;;;;;4.63;1.87;;;;;;;;;;5072057;28;20618;-45
2022/10/19 14:48:58;;;;;;;2.43;1.53;;;;;;;;;;5071554;28;20207;-45
2022/10/19 14:51:34;;;;;;;4.80;2.47;;;;;;;;;;5071937;28;20242;-45